Terminal Aerodrome Forecast
Issued by NWS

Home | Current Version | Previous Version | Text Only | Print | Product List | Glossary On
Versions: 1 2 3 4 5 6 7 8 9 10 11 12
000
FTUS45 KGJT 232331
TAFMTJ
TAF
KMTJ 232331Z 2400/2424 33007KT P6SM FEW090 SCT150
     FM240200 13005KT P6SM SCT250
     FM242100 31006KT P6SM FEW100 SCT250=

USA.gov is the U.S. government's official web portal to all federal, state and local government web resources and services.